Time;durP1;ratioP1;P1;durP2;ratioP2;P2;SDS_P1;SDS_P2;PMS_P1;PMS_P2;Temp;Humidity;BMP_temperature;BMP_pressure;BME280_temperature;BME280_humidity;BME280_pressure;Samples;Min_cycle;Max_cycle;Signal;HPM_P1;HPM_P2
2021/05/02 00:00:24;;;;;;;12.38;6.25;;;13.80;98.00;;;;;;5038985;28;20306;-72
2021/05/02 00:02:50;;;;;;;15.35;7.47;;;13.80;98.00;;;;;;5038615;28;20034;-72
2021/05/02 00:05:18;;;;;;;15.68;6.35;;;13.80;98.00;;;;;;5038596;28;20049;-72
2021/05/02 00:07:46;;;;;;;14.85;7.20;;;13.70;98.00;;;;;;5038596;28;20014;-72
2021/05/02 00:10:13;;;;;;;12.23;7.00;;;13.70;98.00;;;;;;5038791;28;20029;-72
2021/05/02 00:12:39;;;;;;;12.15;7.22;;;13.80;98.00;;;;;;5038498;28;20418;-72
2021/05/02 00:15:09;;;;;;;12.63;6.57;;;13.70;98.00;;;;;;5038769;28;20030;-72
2021/05/02 00:17:41;;;;;;;19.20;7.13;;;13.70;98.00;;;;;;5038684;28;20018;-72
2021/05/02 00:20:08;;;;;;;16.35;6.72;;;13.70;98.00;;;;;;5037509;28;20106;-72
2021/05/02 00:22:36;;;;;;;9.70;6.72;;;13.70;98.00;;;;;;5038172;28;20036;-72
2021/05/02 00:25:05;;;;;;;13.73;6.63;;;13.60;98.00;;;;;;5038515;28;20132;-72
2021/05/02 00:27:30;;;;;;;11.05;7.05;;;13.60;98.00;;;;;;5038478;28;20071;-72
2021/05/02 00:29:57;;;;;;;19.55;7.13;;;13.60;98.00;;;;;;5038126;28;20022;-72
2021/05/02 00:32:24;;;;;;;329.88;21.25;;;13.60;98.00;;;;;;5038127;28;20481;-72
2021/05/02 00:34:50;;;;;;;31.10;8.30;;;13.60;98.00;;;;;;5038288;28;20033;-72
2021/05/02 00:37:18;;;;;;;26.85;8.00;;;13.70;98.00;;;;;;5038321;28;20099;-72
2021/05/02 00:39:43;;;;;;;11.35;7.05;;;13.70;98.00;;;;;;5038026;28;20362;-72
2021/05/02 00:42:19;;;;;;;12.30;7.20;;;13.70;98.00;;;;;;5037853;28;20064;-72
2021/05/02 00:45:08;;;;;;;15.15;7.40;;;13.70;98.00;;;;;;5038152;28;20060;-72
2021/05/02 00:47:37;;;;;;;12.18;7.28;;;13.70;98.00;;;;;;5038081;28;20032;-72
2021/05/02 00:50:10;;;;;;;11.88;7.10;;;13.70;98.00;;;;;;5037743;28;20057;-72
2021/05/02 00:52:56;;;;;;;17.13;7.57;;;13.60;98.00;;;;;;5037963;28;20018;-72
2021/05/02 00:55:28;;;;;;;14.43;7.72;;;13.60;98.00;;;;;;5037932;28;20436;-71
2021/05/02 00:58:01;;;;;;;10.65;7.28;;;13.60;98.00;;;;;;5037622;28;20087;-72
2021/05/02 01:00:30;;;;;;;11.20;7.22;;;13.60;98.00;;;;;;5037921;28;20049;-72
2021/05/02 01:02:58;;;;;;;14.95;7.78;;;13.60;98.00;;;;;;5037431;28;20033;-72
2021/05/02 01:05:24;;;;;;;11.52;7.20;;;13.60;98.00;;;;;;5037708;28;20018;-72
2021/05/02 01:07:54;;;;;;;12.15;8.38;;;13.50;98.00;;;;;;5037759;28;20041;-72
2021/05/02 01:10:21;;;;;;;10.63;8.05;;;13.50;98.00;;;;;;5037918;28;20306;-72
2021/05/02 01:12:47;;;;;;;19.42;7.50;;;13.50;98.00;;;;;;5037350;28;20025;-72
2021/05/02 01:15:20;;;;;;;178.55;12.93;;;13.60;98.00;;;;;;5037179;28;20094;-72
2021/05/02 01:18:08;;;;;;;12.13;7.22;;;13.70;98.00;;;;;;5037263;28;20091;-72
2021/05/02 01:20:36;;;;;;;19.05;7.97;;;13.50;98.00;;;;;;5037508;28;20029;-71
2021/05/02 01:23:18;;;;;;;10.52;7.63;;;13.50;98.00;;;;;;5037047;28;20413;-72
2021/05/02 01:25:45;;;;;;;13.10;7.47;;;13.40;98.00;;;;;;5037080;28;20033;-72
2021/05/02 01:28:11;;;;;;;13.43;8.48;;;13.40;98.00;;;;;;5037134;28;20022;-72
2021/05/02 01:30:38;;;;;;;15.20;8.70;;;13.40;98.00;;;;;;5035941;28;20021;-72
2021/05/02 01:33:05;;;;;;;13.38;7.72;;;13.40;98.00;;;;;;5037338;28;20028;-72
2021/05/02 01:35:31;;;;;;;16.60;8.30;;;13.40;98.00;;;;;;5036877;28;20410;-72
2021/05/02 01:37:57;;;;;;;12.95;8.07;;;13.50;98.00;;;;;;5036965;28;20022;-72
2021/05/02 01:40:22;;;;;;;13.40;8.25;;;13.50;98.00;;;;;;5036663;28;20048;-72
2021/05/02 01:42:49;;;;;;;14.52;7.90;;;13.50;98.00;;;;;;5037132;28;20025;-72
2021/05/02 01:45:15;;;;;;;11.45;8.20;;;13.50;98.00;;;;;;5036776;28;20026;-72
2021/05/02 01:47:45;;;;;;;14.77;7.75;;;13.50;98.00;;;;;;5036773;28;20021;-72
2021/05/02 01:50:12;;;;;;;14.85;8.45;;;13.40;98.00;;;;;;5037091;28;20026;-72
2021/05/02 01:52:48;;;;;;;11.98;7.53;;;13.30;98.00;;;;;;5036986;28;20032;-72
2021/05/02 01:55:16;;;;;;;10.88;7.40;;;13.20;98.00;;;;;;5036958;28;20079;-72
2021/05/02 01:57:43;;;;;;;10.43;6.88;;;13.10;98.00;;;;;;5036983;28;20026;-72
2021/05/02 02:00:12;;;;;;;11.30;7.00;;;13.00;98.00;;;;;;5037030;28;20552;-72
2021/05/02 02:02:38;;;;;;;12.15;7.18;;;12.90;98.00;;;;;;5036540;28;20029;-72
2021/05/02 02:05:05;;;;;;;12.70;7.03;;;12.80;98.00;;;;;;5036853;28;20060;-72
2021/05/02 02:07:32;;;;;;;11.00;5.68;;;12.70;98.00;;;;;;5036891;28;20018;-72
2021/05/02 02:09:59;;;;;;;6.75;4.28;;;12.60;98.00;;;;;;5036529;28;20547;-72
2021/05/02 02:12:25;;;;;;;7.63;4.38;;;12.60;98.00;;;;;;5036590;28;20026;-72
2021/05/02 02:14:52;;;;;;;8.40;4.45;;;12.50;98.00;;;;;;5036769;28;20033;-72
2021/05/02 02:17:20;;;;;;;9.88;6.10;;;12.40;98.00;;;;;;5036794;28;20056;-72
2021/05/02 02:19:46;;;;;;;257.60;17.98;;;12.50;98.00;;;;;;5036744;28;20088;-72
2021/05/02 02:22:14;;;;;;;1313.05;63.97;;;12.60;98.00;;;;;;5036683;28;20037;-72
2021/05/02 02:24:51;;;;;;;1370.60;64.05;;;12.70;98.00;;;;;;5036761;28;20460;-72
2021/05/02 02:27:19;;;;;;;253.95;13.80;;;12.80;98.00;;;;;;5036771;28;20033;-72
2021/05/02 02:29:49;;;;;;;10.57;5.00;;;12.90;98.00;;;;;;5036691;28;20025;-71
2021/05/02 02:32:17;;;;;;;65.20;7.45;;;13.00;98.00;;;;;;5036440;28;20021;-72
2021/05/02 02:34:47;;;;;;;166.07;10.80;;;13.10;98.00;;;;;;5036300;28;20329;-72
2021/05/02 02:37:16;;;;;;;62.10;7.75;;;13.10;98.00;;;;;;5036303;28;20422;-71
2021/05/02 02:39:52;;;;;;;47.47;7.70;;;13.10;98.00;;;;;;5036025;28;20053;-72
2021/05/02 02:42:21;;;;;;;14.88;7.10;;;13.10;98.00;;;;;;5037458;28;20124;-72
2021/05/02 02:44:49;;;;;;;16.05;7.78;;;13.10;98.00;;;;;;5040380;28;20026;-71
2021/05/02 02:47:20;;;;;;;15.40;6.38;;;13.20;98.00;;;;;;5040418;28;20028;-72
2021/05/02 02:49:50;;;;;;;8.55;6.22;;;13.20;98.00;;;;;;5040346;28;20048;-72
2021/05/02 02:52:21;;;;;;;8.13;5.97;;;13.30;98.00;;;;;;5040069;28;20022;-72
2021/05/02 02:54:56;;;;;;;12.63;6.90;;;13.30;98.00;;;;;;5039851;28;20048;-72
2021/05/02 02:57:25;;;;;;;8.07;6.22;;;13.40;98.00;;;;;;5040230;28;20033;-72
2021/05/02 02:59:54;;;;;;;11.80;5.50;;;13.40;98.00;;;;;;5040122;28;20029;-72
2021/05/02 03:02:22;;;;;;;17.10;5.38;;;13.50;98.00;;;;;;5039809;28;20413;-72
2021/05/02 03:04:52;;;;;;;9.65;5.65;;;13.40;98.00;;;;;;5040002;28;20113;-72
2021/05/02 03:07:21;;;;;;;7.78;5.82;;;13.40;98.00;;;;;;5040065;28;20025;-72
2021/05/02 03:09:48;;;;;;;8.73;5.80;;;13.50;98.00;;;;;;5039931;28;20026;-72
2021/05/02 03:12:20;;;;;;;12.20;6.28;;;13.50;98.00;;;;;;5040016;28;20087;-72
2021/05/02 03:14:52;;;;;;;7.40;5.60;;;13.50;98.00;;;;;;5039619;28;20104;-72
2021/05/02 03:17:29;;;;;;;10.43;6.13;;;13.40;98.00;;;;;;5039900;28;20033;-72
2021/05/02 03:20:04;;;;;;;12.27;6.95;;;13.40;98.00;;;;;;5039878;28;20325;-72
2021/05/02 03:22:58;;;;;;;8.40;6.28;;;13.20;98.00;;;;;;5039374;28;20472;-72
2021/05/02 03:25:26;;;;;;;10.05;6.47;;;13.20;98.00;;;;;;5039305;28;20052;-72
2021/05/02 03:28:08;;;;;;;11.15;7.72;;;13.20;98.00;;;;;;5039654;28;20439;-72
2021/05/02 03:30:35;;;;;;;11.93;5.88;;;13.30;98.00;;;;;;5039313;28;20018;-72
2021/05/02 03:33:05;;;;;;;141.52;8.90;;;13.30;98.00;;;;;;5039607;28;20362;-72
2021/05/02 03:35:35;;;;;;;55.63;8.15;;;13.30;98.00;;;;;;5039466;28;20037;-72
2021/05/02 03:38:28;;;;;;;49.53;8.98;;;13.20;98.00;;;;;;5040290;28;20060;-72
2021/05/02 03:40:55;;;;;;;108.78;9.15;;;13.30;98.00;;;;;;5039087;28;20416;-72
2021/05/02 03:43:21;;;;;;;18.73;6.20;;;13.30;98.00;;;;;;5039190;28;20033;-72
2021/05/02 03:45:47;;;;;;;15.50;8.27;;;13.20;98.00;;;;;;5039340;28;20408;-72
2021/05/02 03:48:13;;;;;;;29.52;7.90;;;13.30;98.00;;;;;;5038992;28;20115;-72
2021/05/02 03:50:39;;;;;;;42.75;9.75;;;13.30;98.00;;;;;;5039220;28;20029;-72
2021/05/02 03:53:05;;;;;;;37.75;8.50;;;13.30;98.00;;;;;;5038262;28;20034;-72
2021/05/02 03:55:47;;;;;;;23.05;8.80;;;13.30;98.00;;;;;;5038122;28;20487;-72
2021/05/02 03:58:15;;;;;;;10.75;8.25;;;13.30;98.00;;;;;;5038806;28;20032;-72
2021/05/02 04:00:42;;;;;;;15.00;7.18;;;13.30;98.00;;;;;;5039051;28;20026;-72
2021/05/02 04:03:08;;;;;;;17.10;8.77;;;13.40;98.00;;;;;;5038645;28;20091;-72
2021/05/02 04:05:34;;;;;;;11.07;7.57;;;13.40;98.00;;;;;;5038599;28;20112;-72
2021/05/02 04:07:59;;;;;;;12.15;7.05;;;13.40;98.00;;;;;;5038629;28;20024;-72
2021/05/02 04:10:26;;;;;;;19.33;7.63;;;13.40;98.00;;;;;;5038858;28;20037;-72
2021/05/02 04:12:52;;;;;;;17.98;7.70;;;13.30;98.00;;;;;;5038811;28;20318;-72
2021/05/02 04:15:18;;;;;;;96.75;9.85;;;13.30;98.00;;;;;;5038728;28;20033;-72
2021/05/02 04:17:44;;;;;;;11.82;7.68;;;13.20;98.00;;;;;;5038706;28;20025;-72
2021/05/02 04:20:11;;;;;;;15.93;7.28;;;13.10;98.00;;;;;;5038695;28;20025;-72
2021/05/02 04:22:38;;;;;;;24.42;7.45;;;13.10;98.00;;;;;;5038543;28;20436;-72
2021/05/02 04:25:05;;;;;;;15.68;7.97;;;13.20;98.00;;;;;;5038202;28;20041;-72
2021/05/02 04:27:31;;;;;;;68.85;8.98;;;13.20;98.00;;;;;;5038253;28;20023;-72
2021/05/02 04:29:57;;;;;;;149.60;14.55;;;13.20;98.00;;;;;;5038443;28;20029;-72
2021/05/02 04:32:24;;;;;;;330.48;19.52;;;13.10;98.00;;;;;;5038197;28;20356;-72
2021/05/02 04:34:51;;;;;;;354.98;21.05;;;12.90;98.00;;;;;;5038302;28;20052;-72
2021/05/02 04:37:16;;;;;;;44.78;8.40;;;12.90;98.00;;;;;;5038071;28;20032;-72
2021/05/02 04:39:42;;;;;;;819.75;31.27;;;13.00;98.00;;;;;;5038056;28;20025;-72
2021/05/02 04:42:08;;;;;;;752.10;28.58;;;13.10;98.00;;;;;;5038180;28;20064;-72
2021/05/02 04:44:34;;;;;;;406.25;17.42;;;13.00;98.00;;;;;;5037814;28;20033;-72
2021/05/02 04:47:00;;;;;;;600.78;23.98;;;13.00;98.00;;;;;;5038146;28;20051;-72
2021/05/02 04:49:26;;;;;;;1256.55;45.75;;;13.10;98.00;;;;;;5037803;28;20037;-72
2021/05/02 04:51:51;;;;;;;1061.05;40.05;;;13.10;98.00;;;;;;5037747;28;20018;-72
2021/05/02 04:54:19;;;;;;;1360.78;53.38;;;13.10;98.00;;;;;;5037956;28;20033;-72
2021/05/02 04:56:45;;;;;;;753.88;28.45;;;13.10;98.00;;;;;;5037591;28;20057;-72
2021/05/02 04:59:11;;;;;;;1182.57;43.38;;;13.20;98.00;;;;;;5037620;28;20056;-72
2021/05/02 05:01:38;;;;;;;834.42;32.72;;;13.20;98.00;;;;;;5037886;28;20315;-72
2021/05/02 05:04:06;;;;;;;931.35;32.65;;;13.20;98.00;;;;;;5037361;28;20353;-72
2021/05/02 05:06:32;;;;;;;997.63;39.17;;;13.20;98.00;;;;;;5037099;28;20460;-72
2021/05/02 05:08:57;;;;;;;830.50;35.45;;;13.20;98.00;;;;;;5037729;28;20363;-72
2021/05/02 05:11:23;;;;;;;569.47;23.42;;;13.20;98.00;;;;;;5037437;28;20025;-72
2021/05/02 05:13:49;;;;;;;695.75;29.13;;;13.20;98.00;;;;;;5037603;28;20037;-72
2021/05/02 05:16:15;;;;;;;694.88;32.88;;;13.20;98.00;;;;;;5037289;28;20022;-72
2021/05/02 05:18:41;;;;;;;776.70;34.45;;;13.20;98.00;;;;;;5037569;28;20367;-72
2021/05/02 05:21:07;;;;;;;738.58;29.10;;;13.20;98.00;;;;;;5037568;28;20148;-72
2021/05/02 05:23:33;;;;;;;218.88;11.52;;;13.20;98.00;;;;;;5037184;28;20026;-72
2021/05/02 05:25:59;;;;;;;385.20;18.35;;;13.30;98.00;;;;;;5037133;28;20022;-72
2021/05/02 05:28:25;;;;;;;276.25;13.50;;;13.30;98.00;;;;;;5037460;28;20032;-72
2021/05/02 05:30:52;;;;;;;46.15;7.15;;;13.30;98.00;;;;;;5037383;28;20414;-72
2021/05/02 05:33:18;;;;;;;35.90;7.28;;;13.40;98.00;;;;;;5037338;28;20104;-72
2021/05/02 05:35:44;;;;;;;12.93;5.72;;;13.40;98.00;;;;;;5036921;28;20105;-72
2021/05/02 05:38:10;;;;;;;9.35;5.30;;;13.40;98.00;;;;;;5037246;28;20112;-72
2021/05/02 05:40:36;;;;;;;9.15;5.85;;;13.40;98.00;;;;;;5036965;28;20345;-72
2021/05/02 05:43:03;;;;;;;7.72;4.80;;;13.40;98.00;;;;;;5036840;28;20036;-72
2021/05/02 05:45:30;;;;;;;8.32;4.57;;;13.40;98.00;;;;;;5036774;28;20083;-72
2021/05/02 05:47:56;;;;;;;6.30;4.97;;;13.40;98.00;;;;;;5036855;28;20049;-72
2021/05/02 05:50:23;;;;;;;8.30;5.75;;;13.40;98.00;;;;;;5036743;28;20045;-72
2021/05/02 05:52:50;;;;;;;5.43;4.50;;;13.40;98.00;;;;;;5037054;28;20033;-72
2021/05/02 05:55:17;;;;;;;4.97;3.35;;;13.40;98.00;;;;;;5036681;28;20105;-72
2021/05/02 05:57:50;;;;;;;4.72;3.10;;;13.40;98.00;;;;;;5037163;28;20389;-72
2021/05/02 06:00:18;;;;;;;3.63;2.80;;;13.30;97.20;;;;;;5036678;28;20083;-72
2021/05/02 06:02:44;;;;;;;3.47;3.10;;;13.20;97.90;;;;;;5036610;28;20483;-72
2021/05/02 06:05:10;;;;;;;6.35;3.33;;;13.20;97.90;;;;;;5036578;28;20025;-72
2021/05/02 06:07:36;;;;;;;7.93;4.65;;;13.20;97.70;;;;;;5036607;28;20029;-72
2021/05/02 06:10:05;;;;;;;3.72;3.22;;;13.20;97.80;;;;;;5036553;28;20105;-72
2021/05/02 06:12:31;;;;;;;3.80;3.35;;;13.20;97.90;;;;;;5036560;28;20026;-72
2021/05/02 06:14:57;;;;;;;7.68;3.88;;;13.20;98.00;;;;;;5036414;28;20026;-72
2021/05/02 06:17:23;;;;;;;6.53;3.50;;;13.20;97.80;;;;;;5038272;28;20033;-72
2021/05/02 06:19:49;;;;;;;5.03;3.30;;;13.00;98.00;;;;;;5040561;28;20438;-72
2021/05/02 06:22:15;;;;;;;6.43;3.40;;;13.00;98.00;;;;;;5040539;28;20326;-72
2021/05/02 06:24:41;;;;;;;4.80;3.47;;;13.10;98.00;;;;;;5040915;28;20026;-72
2021/05/02 06:27:07;;;;;;;6.65;3.80;;;13.10;98.00;;;;;;5040803;28;20033;-72
2021/05/02 06:29:33;;;;;;;5.47;3.72;;;13.10;98.00;;;;;;5040423;28;20022;-72
2021/05/02 06:31:58;;;;;;;5.57;4.20;;;13.20;98.00;;;;;;5040405;28;20029;-72
2021/05/02 06:34:24;;;;;;;4.82;3.60;;;13.20;98.00;;;;;;5040311;28;20036;-72
2021/05/02 06:36:57;;;;;;;5.05;3.40;;;13.20;98.00;;;;;;5040294;28;20041;-72
2021/05/02 06:39:23;;;;;;;8.00;3.47;;;13.20;98.00;;;;;;5040283;28;20057;-72
2021/05/02 06:41:49;;;;;;;7.47;3.72;;;13.10;98.00;;;;;;5040067;28;20111;-72
2021/05/02 06:44:15;;;;;;;4.50;3.20;;;13.10;98.00;;;;;;5040359;28;20029;-72
2021/05/02 06:46:41;;;;;;;4.13;2.92;;;13.10;98.00;;;;;;5040109;28;20518;-71
2021/05/02 06:49:08;;;;;;;3.47;3.17;;;13.20;98.00;;;;;;5040417;28;20017;-72
2021/05/02 06:51:35;;;;;;;4.07;3.53;;;13.20;98.00;;;;;;5040113;28;20025;-72
2021/05/02 06:54:02;;;;;;;5.55;3.17;;;13.20;98.00;;;;;;5039860;28;20037;-72
2021/05/02 06:56:28;;;;;;;3.90;2.97;;;13.30;98.00;;;;;;5040237;28;20060;-72
2021/05/02 06:58:55;;;;;;;5.05;3.20;;;13.30;98.00;;;;;;5040274;28;20032;-72
2021/05/02 07:01:22;;;;;;;5.82;2.97;;;13.40;98.00;;;;;;5040091;28;20025;-72
2021/05/02 07:03:48;;;;;;;5.05;3.13;;;13.40;98.00;;;;;;5039719;28;20024;-72
2021/05/02 07:06:14;;;;;;;12.65;3.65;;;13.40;97.70;;;;;;5039790;28;20025;-72
2021/05/02 07:08:41;;;;;;;9.38;4.15;;;13.40;98.00;;;;;;5039765;28;20017;-72
2021/05/02 07:11:07;;;;;;;7.07;3.33;;;13.40;98.00;;;;;;5040047;28;20029;-72
2021/05/02 07:13:33;;;;;;;90.20;7.13;;;13.40;98.00;;;;;;5039589;28;20029;-72
2021/05/02 07:16:00;;;;;;;11.77;3.47;;;13.40;98.00;;;;;;5039635;28;20026;-72
2021/05/02 07:18:35;;;;;;;7.00;3.30;;;13.30;98.00;;;;;;5039582;28;20036;-72
2021/05/02 07:21:01;;;;;;;4.25;3.05;;;13.30;97.60;;;;;;5039533;28;20119;-72
2021/05/02 07:23:28;;;;;;;6.45;3.78;;;13.30;98.00;;;;;;5039498;28;20030;-72
2021/05/02 07:25:54;;;;;;;86.32;5.70;;;13.30;98.00;;;;;;5039415;28;20056;-72
2021/05/02 07:28:20;;;;;;;9.98;3.38;;;13.30;98.00;;;;;;5039057;28;20029;-72
2021/05/02 07:30:47;;;;;;;7.80;3.10;;;13.30;98.00;;;;;;5039359;28;20105;-72
2021/05/02 07:33:13;;;;;;;6.50;2.90;;;13.40;98.00;;;;;;5039626;28;20032;-72
2021/05/02 07:35:39;;;;;;;5.45;3.58;;;13.40;98.00;;;;;;5039475;28;20485;-72
2021/05/02 07:38:05;;;;;;;9.07;2.88;;;13.40;97.30;;;;;;5039241;28;20434;-71
2021/05/02 07:40:31;;;;;;;6.93;3.42;;;13.30;97.70;;;;;;5039011;28;20053;-72
2021/05/02 07:42:57;;;;;;;5.45;3.05;;;13.30;97.70;;;;;;5039345;28;20026;-72
2021/05/02 07:45:23;;;;;;;4.40;3.20;;;13.30;97.90;;;;;;5038966;28;20071;-72
2021/05/02 07:47:49;;;;;;;5.93;3.22;;;13.30;98.00;;;;;;5039029;28;20025;-72
2021/05/02 07:50:15;;;;;;;8.23;3.22;;;13.30;97.80;;;;;;5038990;28;20032;-72
2021/05/02 07:52:44;;;;;;;6.60;3.15;;;13.30;98.00;;;;;;5039221;28;20034;-72
2021/05/02 07:55:11;;;;;;;4.03;3.00;;;13.30;98.00;;;;;;5039066;28;20369;-72
2021/05/02 07:57:37;;;;;;;3.25;2.72;;;13.30;97.50;;;;;;5038841;28;20056;-72
2021/05/02 08:00:04;;;;;;;3.78;2.65;;;13.30;97.20;;;;;;5039101;28;20033;-72
2021/05/02 08:02:30;;;;;;;7.53;2.15;;;13.30;96.70;;;;;;5038975;28;20021;-72
2021/05/02 08:04:56;;;;;;;4.85;2.53;;;13.20;97.30;;;;;;5038632;28;20029;-72
2021/05/02 08:07:22;;;;;;;3.33;2.60;;;13.20;97.60;;;;;;5038689;28;20029;-72
2021/05/02 08:09:48;;;;;;;4.57;2.75;;;13.20;97.60;;;;;;5038870;28;20029;-72
2021/05/02 08:12:14;;;;;;;5.15;3.10;;;13.20;97.50;;;;;;5038646;28;20517;-72
2021/05/02 08:14:41;;;;;;;5.80;2.83;;;13.20;98.00;;;;;;5038754;28;20087;-72
2021/05/02 08:17:08;;;;;;;5.30;3.38;;;13.20;97.80;;;;;;5038466;28;20178;-72
2021/05/02 08:19:33;;;;;;;6.57;3.42;;;13.10;98.00;;;;;;5038391;28;20021;-72
2021/05/02 08:22:02;;;;;;;5.05;2.65;;;13.20;98.00;;;;;;5038417;28;20302;-72
2021/05/02 08:24:31;;;;;;;4.15;2.70;;;13.20;98.00;;;;;;5038242;28;20037;-71
2021/05/02 08:26:57;;;;;;;3.63;2.85;;;13.20;98.00;;;;;;5038598;28;20096;-72
2021/05/02 08:29:23;;;;;;;3.00;2.72;;;13.30;98.00;;;;;;5038256;28;20030;-72
2021/05/02 08:31:49;;;;;;;3.20;2.15;;;13.30;98.00;;;;;;5038201;28;20014;-72
2021/05/02 08:34:15;;;;;;;4.10;2.60;;;13.40;97.60;;;;;;5038397;28;20113;-72
2021/05/02 08:36:41;;;;;;;3.50;2.60;;;13.40;97.70;;;;;;5038070;28;20368;-72
2021/05/02 08:39:07;;;;;;;8.05;3.03;;;13.50;97.50;;;;;;5037747;28;20064;-72
2021/05/02 08:41:33;;;;;;;5.57;2.50;;;13.40;97.80;;;;;;5037434;28;20162;-72
2021/05/02 08:44:02;;;;;;;3.20;2.60;;;13.40;98.00;;;;;;5038122;28;20108;-72
2021/05/02 08:46:28;;;;;;;2.92;2.33;;;13.40;98.00;;;;;;5038175;28;20028;-72
2021/05/02 08:48:54;;;;;;;4.32;2.30;;;13.40;98.00;;;;;;5037878;28;20030;-72
2021/05/02 08:51:20;;;;;;;4.05;2.28;;;13.30;98.00;;;;;;5037875;28;20036;-72
2021/05/02 08:53:46;;;;;;;3.05;2.40;;;13.40;98.00;;;;;;5038113;28;20030;-72
2021/05/02 08:56:11;;;;;;;4.13;2.40;;;13.40;98.00;;;;;;5038038;28;20041;-72
2021/05/02 08:58:37;;;;;;;2.85;2.33;;;13.30;98.00;;;;;;5037997;28;20439;-72
2021/05/02 09:01:04;;;;;;;3.35;2.15;;;13.40;97.80;;;;;;5037985;28;20079;-72
2021/05/02 09:03:46;;;;;;;2.75;2.50;;;13.40;97.20;;;;;;5037741;28;20033;-72
2021/05/02 09:06:23;;;;;;;2.92;2.25;;;13.40;97.70;;;;;;5037826;28;20037;-72
2021/05/02 09:08:56;;;;;;;4.50;2.80;;;13.40;97.00;;;;;;5037533;28;20025;-72
2021/05/02 09:11:35;;;;;;;3.40;3.10;;;13.40;97.30;;;;;;5037513;28;20033;-72
2021/05/02 09:14:04;;;;;;;2.95;2.60;;;13.40;97.20;;;;;;5037654;28;20076;-72
2021/05/02 09:17:13;;;;;;;2.65;2.42;;;13.50;97.30;;;;;;5037325;28;20082;-72
2021/05/02 09:19:51;;;;;;;3.00;2.55;;;13.60;97.70;;;;;;5035443;28;20025;-72
2021/05/02 09:22:18;;;;;;;3.53;2.13;;;13.70;97.10;;;;;;5037011;28;20033;-72
2021/05/02 09:25:02;;;;;;;2.80;2.60;;;13.70;97.30;;;;;;5037618;28;20025;-72
2021/05/02 09:27:28;;;;;;;4.40;2.65;;;13.60;97.60;;;;;;5037525;28;20034;-72
2021/05/02 09:30:11;;;;;;;6.45;2.70;;;13.50;97.30;;;;;;5037133;28;20100;-72
2021/05/02 09:32:44;;;;;;;4.82;2.70;;;13.40;97.20;;;;;;5037478;28;20357;-72
2021/05/02 09:35:31;;;;;;;4.05;2.60;;;13.40;97.10;;;;;;5036957;28;20037;-72
2021/05/02 09:38:14;;;;;;;2.40;2.20;;;13.30;97.20;;;;;;5036901;28;20021;-71
2021/05/02 09:40:47;;;;;;;3.50;3.00;;;13.30;97.10;;;;;;5036757;28;20434;-71
2021/05/02 09:43:28;;;;;;;7.60;2.95;;;13.20;97.10;;;;;;5037124;28;20033;-71
2021/05/02 09:46:37;;;;;;;4.30;2.70;;;13.10;98.00;;;;;;5037188;28;20056;-72
2021/05/02 09:49:09;;;;;;;2.90;2.60;;;13.10;98.00;;;;;;5037167;28;20030;-72
2021/05/02 09:51:36;;;;;;;3.00;2.70;;;13.10;98.00;;;;;;5037067;28;20373;-72
2021/05/02 09:54:07;;;;;;;2.67;2.47;;;13.00;98.00;;;;;;5036639;28;20513;-72
2021/05/02 09:56:37;;;;;;;2.50;2.25;;;12.90;98.00;;;;;;5036800;28;20487;-72
2021/05/02 09:59:05;;;;;;;2.10;1.90;;;12.90;98.00;;;;;;5036675;28;20032;-72
2021/05/02 10:01:31;;;;;;;4.53;2.15;;;12.80;98.00;;;;;;5037036;28;20356;-71
2021/05/02 10:04:00;;;;;;;2.47;2.10;;;12.90;98.00;;;;;;5036850;28;20084;-71
2021/05/02 10:06:30;;;;;;;3.25;2.20;;;12.80;98.00;;;;;;5036604;28;20030;-71
2021/05/02 10:08:57;;;;;;;6.72;2.60;;;12.90;98.00;;;;;;5037225;28;20052;-71
2021/05/02 10:11:24;;;;;;;6.57;2.50;;;13.00;98.00;;;;;;5036593;28;20025;-71
2021/05/02 10:13:50;;;;;;;3.78;2.78;;;13.00;98.00;;;;;;5035853;28;20082;-71
2021/05/02 10:16:16;;;;;;;2.50;2.30;;;13.10;98.00;;;;;;5040828;28;20038;-71
2021/05/02 10:18:42;;;;;;;1.73;1.60;;;13.20;98.00;;;;;;5052523;28;20099;-71
2021/05/02 10:21:09;;;;;;;4.30;1.70;;;13.30;97.80;;;;;;5056453;28;20040;-71
2021/05/02 10:23:38;;;;;;;3.83;1.50;;;13.20;97.50;;;;;;5056428;28;20029;-71
2021/05/02 10:26:06;;;;;;;2.55;1.60;;;13.20;97.50;;;;;;5056720;28;20033;-71
2021/05/02 10:28:34;;;;;;;2.15;1.85;;;13.20;96.70;;;;;;5056632;28;20029;-71
2021/05/02 10:31:02;;;;;;;4.45;1.48;;;13.30;96.40;;;;;;5056660;28;20036;-71
2021/05/02 10:33:39;;;;;;;2.75;2.35;;;13.40;96.20;;;;;;5056531;28;20148;-71
2021/05/02 10:36:08;;;;;;;2.60;1.90;;;13.40;96.90;;;;;;5056600;28;20317;-72
2021/05/02 10:39:02;;;;;;;2.40;2.20;;;13.50;97.70;;;;;;5056292;28;20036;-72
2021/05/02 10:41:34;;;;;;;3.42;2.63;;;13.60;97.00;;;;;;5056213;28;20053;-72
2021/05/02 10:44:05;;;;;;;3.10;2.60;;;13.70;97.40;;;;;;5056086;28;20036;-71
2021/05/02 10:46:52;;;;;;;3.00;2.70;;;13.70;97.20;;;;;;5056544;28;20357;-72
2021/05/02 10:49:18;;;;;;;2.80;2.50;;;13.70;94.30;;;;;;5056466;28;20082;-71
2021/05/02 10:51:44;;;;;;;2.83;2.63;;;13.70;96.80;;;;;;5056450;28;20363;-72
2021/05/02 10:54:19;;;;;;;3.40;3.10;;;13.70;94.50;;;;;;5056492;28;20029;-72
2021/05/02 10:56:44;;;;;;;3.42;3.13;;;13.70;95.40;;;;;;5056163;28;20029;-71
2021/05/02 10:59:11;;;;;;;3.85;3.05;;;13.80;94.40;;;;;;5056386;28;20029;-72
2021/05/02 11:01:37;;;;;;;3.40;2.95;;;14.00;95.00;;;;;;5056392;28;20045;-72
2021/05/02 11:04:03;;;;;;;3.97;3.33;;;14.00;94.20;;;;;;5058553;28;20361;-72
2021/05/02 11:06:38;;;;;;;3.80;3.22;;;14.00;93.00;;;;;;5059753;28;20025;-72
2021/05/02 11:09:04;;;;;;;4.18;3.25;;;13.90;94.20;;;;;;5060037;28;20029;-72
2021/05/02 11:11:30;;;;;;;6.57;3.58;;;13.80;94.60;;;;;;5060005;28;20376;-72
2021/05/02 11:14:08;;;;;;;3.70;3.38;;;13.80;95.00;;;;;;5059540;28;20033;-72
2021/05/02 11:16:49;;;;;;;3.55;3.25;;;13.80;95.90;;;;;;5059589;28;20060;-72
2021/05/02 11:19:22;;;;;;;3.83;3.50;;;13.80;94.60;;;;;;5059539;28;20056;-72
2021/05/02 11:21:48;;;;;;;4.22;3.75;;;13.90;95.60;;;;;;5059741;28;20037;-72
2021/05/02 11:24:24;;;;;;;3.83;3.53;;;14.10;96.50;;;;;;5059643;28;20067;-72
2021/05/02 11:29:37;;;;;;;4.13;3.28;;;15.50;97.00;;;;;;5059455;28;20060;-72
2021/05/02 11:32:04;;;;;;;3.63;3.20;;;16.00;93.20;;;;;;5059365;28;20031;-71
2021/05/02 11:34:53;;;;;;;3.40;3.10;;;16.10;90.80;;;;;;5059473;28;20049;-71
2021/05/02 11:37:58;;;;;;;3.65;3.35;;;15.90;90.50;;;;;;5059457;28;20055;-72
2021/05/02 11:40:25;;;;;;;3.30;3.00;;;15.70;87.90;;;;;;5058922;28;20445;-72
2021/05/02 11:42:51;;;;;;;3.35;3.05;;;15.30;89.40;;;;;;5058995;28;20033;-72
2021/05/02 11:45:20;;;;;;;3.25;2.70;;;15.00;89.70;;;;;;5059249;28;20352;-72
2021/05/02 11:47:46;;;;;;;3.60;3.30;;;14.80;89.70;;;;;;5059045;28;20029;-72
2021/05/02 11:50:12;;;;;;;5.80;3.80;;;14.60;91.10;;;;;;5059210;28;20049;-72
2021/05/02 11:52:49;;;;;;;3.85;3.38;;;14.40;92.70;;;;;;5059142;28;20025;-72
2021/05/02 11:55:38;;;;;;;5.03;3.28;;;14.40;93.70;;;;;;5058782;28;20330;-72
2021/05/02 11:58:12;;;;;;;4.60;3.58;;;14.20;93.70;;;;;;5058812;28;20421;-72
2021/05/02 12:00:48;;;;;;;3.95;3.55;;;14.10;95.80;;;;;;5059087;28;20052;-72
2021/05/02 12:03:16;;;;;;;5.43;4.53;;;14.10;95.30;;;;;;5058610;28;20028;-72
2021/05/02 12:05:48;;;;;;;4.15;3.75;;;14.20;96.90;;;;;;5058880;28;20108;-72
2021/05/02 12:08:16;;;;;;;4.40;4.00;;;14.30;96.60;;;;;;5058625;28;20060;-72
2021/05/02 12:10:43;;;;;;;3.78;3.38;;;14.50;97.00;;;;;;5058884;28;20359;-72
2021/05/02 12:13:29;;;;;;;4.07;3.55;;;14.60;95.90;;;;;;5058552;28;20107;-72
2021/05/02 12:16:16;;;;;;;3.92;3.42;;;14.60;93.60;;;;;;5057187;28;20135;-72
2021/05/02 12:18:49;;;;;;;4.00;3.70;;;14.50;94.20;;;;;;5058440;28;20033;-72
2021/05/02 12:21:20;;;;;;;8.18;4.57;;;14.40;95.00;;;;;;5058393;28;20033;-72
2021/05/02 12:23:46;;;;;;;3.83;3.35;;;14.30;94.20;;;;;;5058458;28;20040;-72
2021/05/02 12:26:14;;;;;;;4.10;3.70;;;14.40;92.40;;;;;;5058312;28;20360;-71
2021/05/02 12:28:41;;;;;;;3.50;3.20;;;14.60;92.10;;;;;;5058209;28;20033;-72
2021/05/02 12:31:09;;;;;;;3.72;3.42;;;14.90;93.50;;;;;;5058195;28;20417;-72
2021/05/02 12:33:36;;;;;;;4.68;4.05;;;15.00;91.70;;;;;;5058073;28;20033;-72
2021/05/02 12:36:08;;;;;;;3.80;3.20;;;15.00;94.10;;;;;;5058118;28;20025;-72
2021/05/02 12:38:34;;;;;;;3.53;3.22;;;15.00;92.50;;;;;;5058053;28;20033;-72
2021/05/02 12:41:01;;;;;;;3.33;2.67;;;15.00;93.60;;;;;;5057795;28;20041;-72
2021/05/02 12:43:29;;;;;;;2.90;2.70;;;15.20;92.70;;;;;;5058089;28;20120;-71
2021/05/02 12:45:56;;;;;;;4.07;3.70;;;15.40;94.10;;;;;;5057888;28;20086;-72
2021/05/02 12:48:36;;;;;;;4.10;3.50;;;15.50;95.40;;;;;;5057863;28;20028;-71
2021/05/02 12:51:02;;;;;;;7.15;3.40;;;15.50;93.60;;;;;;5057832;28;20059;-72
2021/05/02 12:53:42;;;;;;;5.20;3.80;;;15.60;94.50;;;;;;5057958;28;20044;-72